createdAt,value
2019-02-03T00:01:58.108Z,93926.00
2019-02-03T00:04:28.288Z,93916.00
2019-02-03T00:07:03.363Z,93934.00
2019-02-03T00:09:29.822Z,93931.00
2019-02-03T00:11:59.980Z,93937.00
2019-02-03T00:14:29.939Z,93931.00
2019-02-03T00:17:00.176Z,93933.00
2019-02-03T00:19:30.216Z,93934.00
2019-02-03T00:22:00.299Z,93949.00
2019-02-03T00:24:30.257Z,93955.00
2019-02-03T00:27:00.367Z,93943.00
2019-02-03T00:29:30.816Z,93943.00
2019-02-03T00:32:00.983Z,93944.00
2019-02-03T00:34:32.803Z,93938.00
2019-02-03T00:37:14.792Z,93947.00
2019-02-03T00:39:35.656Z,93950.00
2019-02-03T00:42:05.835Z,93963.00
2019-02-03T00:44:35.904Z,93963.00
2019-02-03T00:47:05.899Z,93965.00
2019-02-03T00:49:35.833Z,93958.00
2019-02-03T00:52:06.172Z,93951.00
2019-02-03T00:54:36.100Z,93955.00
2019-02-03T00:57:06.155Z,93933.00
2019-02-03T00:59:36.160Z,93943.00
2019-02-03T01:02:06.442Z,93950.00
2019-02-03T01:04:36.523Z,93952.00
2019-02-03T01:07:07.312Z,93946.00
2019-02-03T01:09:37.345Z,93970.00
2019-02-03T01:12:07.439Z,93969.00
2019-02-03T01:14:37.489Z,93957.00
2019-02-03T01:17:07.633Z,93953.00
2019-02-03T01:19:38.005Z,93967.00
2019-02-03T01:22:08.075Z,93947.00
2019-02-03T01:24:38.043Z,93959.00
2019-02-03T01:27:08.011Z,93963.00
2019-02-03T01:29:38.078Z,93966.00
2019-02-03T01:32:08.286Z,93966.00
2019-02-03T01:34:38.302Z,93976.00
2019-02-03T01:37:08.310Z,93975.00
2019-02-03T01:39:38.314Z,93971.00
2019-02-03T01:42:08.341Z,93987.00
2019-02-03T01:44:38.510Z,93966.00
2019-02-03T01:47:08.589Z,93964.00
2019-02-03T01:49:38.581Z,93966.00
2019-02-03T01:52:08.622Z,93966.00
2019-02-03T01:54:38.675Z,93980.00
2019-02-03T01:57:08.713Z,93977.00
2019-02-03T01:59:38.704Z,93977.00
2019-02-03T02:02:08.775Z,93960.00
2019-02-03T02:04:38.784Z,93966.00
2019-02-03T02:07:08.785Z,93975.00
2019-02-03T02:09:38.822Z,93971.00
2019-02-03T02:12:09.190Z,93968.00
2019-02-03T02:14:39.247Z,93973.00
2019-02-03T02:17:09.323Z,93968.00
2019-02-03T02:19:39.373Z,93971.00
2019-02-03T02:22:09.408Z,93958.00
2019-02-03T02:24:39.755Z,93957.00
2019-02-03T02:27:09.808Z,93975.00
2019-02-03T02:29:39.824Z,93967.00
2019-02-03T02:32:09.887Z,93972.00
2019-02-03T02:34:40.048Z,93978.00
2019-02-03T02:37:09.946Z,93972.00
2019-02-03T02:39:39.895Z,93954.00
2019-02-03T02:42:09.977Z,93960.00
2019-02-03T02:44:39.987Z,93959.00
2019-02-03T02:47:10.117Z,93971.00
2019-02-03T02:49:40.022Z,93969.00
2019-02-03T02:52:10.412Z,93969.00
2019-02-03T02:54:40.316Z,93965.00
2019-02-03T02:57:10.233Z,93974.00
2019-02-03T02:59:40.205Z,93968.00
2019-02-03T03:02:10.379Z,93973.00
2019-02-03T03:04:40.848Z,93980.00
2019-02-03T03:07:10.896Z,93978.00
2019-02-03T03:09:40.971Z,93983.00
2019-02-03T03:12:10.884Z,93973.00
2019-02-03T03:14:40.880Z,93977.00
2019-02-03T03:17:11.176Z,93978.00
2019-02-03T03:19:41.090Z,93973.00
2019-02-03T03:22:11.042Z,93978.00
2019-02-03T03:24:41.044Z,93983.00
2019-02-03T03:27:10.960Z,93989.00
2019-02-03T03:29:40.977Z,93990.00
2019-02-03T03:32:10.868Z,93986.00
2019-02-03T03:34:40.964Z,93991.00
2019-02-03T03:37:10.963Z,93992.00
2019-02-03T03:39:40.955Z,94004.00
2019-02-03T03:42:11.135Z,94002.00
2019-02-03T03:44:41.314Z,94011.00
2019-02-03T03:47:11.217Z,94010.00
2019-02-03T03:49:41.132Z,93991.00
2019-02-03T03:52:11.335Z,93994.00
2019-02-03T03:54:41.365Z,94004.00
2019-02-03T03:57:11.790Z,94003.00
2019-02-03T03:59:41.753Z,94003.00
2019-02-03T04:02:11.882Z,94008.00
2019-02-03T04:04:41.888Z,94001.00
2019-02-03T04:07:12.113Z,94011.00
2019-02-03T04:09:42.476Z,94014.00
2019-02-03T04:12:12.499Z,94020.00
2019-02-03T04:14:42.549Z,94023.00
2019-02-03T04:17:12.693Z,94022.00
2019-02-03T04:19:42.596Z,94031.00
2019-02-03T04:22:12.974Z,94029.00
2019-02-03T04:24:42.923Z,94023.00
2019-02-03T04:27:12.922Z,94039.00
2019-02-03T04:29:42.814Z,94048.00
2019-02-03T04:32:12.725Z,94038.00
2019-02-03T04:34:42.633Z,94064.00
2019-02-03T04:37:12.621Z,94063.00
2019-02-03T04:39:42.564Z,94055.00
2019-02-03T04:42:12.542Z,94054.00
2019-02-03T04:44:42.550Z,94058.00
2019-02-03T04:47:12.555Z,94062.00
2019-02-03T04:49:42.719Z,94059.00
2019-02-03T04:52:12.768Z,94061.00
2019-02-03T04:54:42.693Z,94065.00
2019-02-03T04:57:12.609Z,94078.00
2019-02-03T04:59:42.522Z,94084.00
2019-02-03T05:02:12.860Z,94076.00
2019-02-03T05:04:42.820Z,94076.00
2019-02-03T05:07:12.823Z,94088.00
2019-02-03T05:09:42.771Z,94096.00
2019-02-03T05:12:12.731Z,94118.00
2019-02-03T05:14:42.747Z,94109.00
2019-02-03T05:17:12.641Z,94115.00
2019-02-03T05:19:42.600Z,94120.00
2019-02-03T05:22:12.541Z,94119.00
2019-02-03T05:24:42.446Z,94118.00
2019-02-03T05:27:12.375Z,94119.00
2019-02-03T05:29:42.351Z,94128.00
2019-02-03T05:32:12.262Z,94123.00
2019-02-03T05:34:42.335Z,94143.00
2019-02-03T05:37:12.495Z,94137.00
2019-02-03T05:39:42.576Z,94136.00
2019-02-03T05:42:12.734Z,94127.00
2019-02-03T05:44:42.634Z,94130.00
2019-02-03T05:47:12.776Z,94143.00
2019-02-03T05:49:42.708Z,94141.00
2019-02-03T05:52:12.629Z,94127.00
2019-02-03T05:54:42.824Z,94128.00
2019-02-03T05:57:12.791Z,94152.00
2019-02-03T05:59:42.834Z,94145.00
2019-02-03T06:02:12.753Z,94145.00
2019-02-03T06:04:42.708Z,94147.00
2019-02-03T06:07:12.802Z,94156.00
2019-02-03T06:09:42.692Z,94158.00
2019-02-03T06:12:12.768Z,94160.00
2019-02-03T06:14:42.763Z,94166.00
2019-02-03T06:17:12.775Z,94177.00
2019-02-03T06:19:42.715Z,94183.00
2019-02-03T06:22:13.085Z,94170.00
2019-02-03T06:24:43.009Z,94178.00
2019-02-03T06:27:13.057Z,94197.00
2019-02-03T06:29:43.023Z,94200.00
2019-02-03T06:32:13.125Z,94207.00
2019-02-03T06:34:43.172Z,94209.00
2019-02-03T06:37:13.256Z,94210.00
2019-02-03T06:39:48.820Z,94218.00
2019-02-03T06:42:15.154Z,94215.00
2019-02-03T06:44:45.148Z,94234.00
2019-02-03T06:47:24.460Z,94246.00
2019-02-03T06:49:54.322Z,94240.00
2019-02-03T06:52:24.419Z,94237.00
2019-02-03T06:54:54.307Z,94244.00
2019-02-03T06:57:24.279Z,94251.00
2019-02-03T06:59:54.423Z,94256.00
2019-02-03T07:02:24.413Z,94253.00
2019-02-03T07:04:54.299Z,94259.00
2019-02-03T07:07:24.216Z,94275.00
2019-02-03T07:10:00.390Z,94275.00
2019-02-03T07:12:25.823Z,94282.00
2019-02-03T07:14:55.703Z,94286.00
2019-02-03T07:17:25.612Z,94288.00
2019-02-03T07:19:55.494Z,94302.00
2019-02-03T07:22:25.468Z,94297.00
2019-02-03T07:24:55.684Z,94308.00
2019-02-03T07:27:25.596Z,94318.00
2019-02-03T07:29:55.583Z,94320.00
2019-02-03T07:32:25.581Z,94324.00
2019-02-03T07:34:55.484Z,94324.00
2019-02-03T07:37:25.458Z,94331.00
2019-02-03T07:39:55.370Z,94337.00
2019-02-03T07:42:25.349Z,94342.00
2019-02-03T07:44:55.317Z,94358.00
2019-02-03T07:47:25.194Z,94351.00
2019-02-03T07:49:55.086Z,94361.00
2019-02-03T07:52:24.998Z,94345.00
2019-02-03T07:54:54.905Z,94337.00
2019-02-03T07:57:24.855Z,94364.00
2019-02-03T07:59:54.850Z,94367.00
2019-02-03T08:02:24.853Z,94371.00
2019-02-03T08:04:54.934Z,94387.00
2019-02-03T08:07:24.815Z,94381.00
2019-02-03T08:09:54.764Z,94398.00
2019-02-03T08:12:24.782Z,94398.00
2019-02-03T08:14:54.669Z,94408.00
2019-02-03T08:17:24.712Z,94413.00
2019-02-03T08:19:54.578Z,94410.00
2019-02-03T08:22:24.714Z,94418.00
2019-02-03T08:24:54.701Z,94437.00
2019-02-03T08:27:24.731Z,94429.00
2019-02-03T08:29:54.673Z,94435.00
2019-02-03T08:32:25.002Z,94432.00
2019-02-03T08:34:54.965Z,94451.00
2019-02-03T08:37:24.865Z,94447.00
2019-02-03T08:39:54.860Z,94455.00
2019-02-03T08:42:24.744Z,94468.00
2019-02-03T08:44:54.897Z,94462.00
2019-02-03T08:47:24.992Z,94473.00
2019-02-03T08:49:54.880Z,94474.00
2019-02-03T08:52:24.889Z,94489.00
2019-02-03T08:54:58.539Z,94499.00
2019-02-03T08:57:26.670Z,94489.00
2019-02-03T08:59:56.688Z,94511.00
2019-02-03T09:02:26.697Z,94507.00
2019-02-03T09:04:56.756Z,94517.00
2019-02-03T09:07:26.690Z,94530.00
2019-02-03T09:09:56.613Z,94520.00
2019-02-03T09:12:26.508Z,94529.00
2019-02-03T09:14:56.398Z,94538.00
2019-02-03T09:17:26.344Z,94542.00
2019-02-03T09:19:58.098Z,94537.00
2019-02-03T09:22:27.895Z,94552.00
2019-02-03T09:24:58.069Z,94538.00
2019-02-03T09:27:28.060Z,94562.00
2019-02-03T09:29:57.964Z,94561.00
2019-02-03T09:32:27.850Z,94580.00
2019-02-03T09:34:57.891Z,94583.00
